createdAt,value
2018-06-23T00:02:44.775Z,7.93
2018-06-23T00:05:47.993Z,8.00
2018-06-23T00:08:50.269Z,8.67
2018-06-23T00:11:52.483Z,10.83
2018-06-23T00:14:54.685Z,13.13
2018-06-23T00:17:56.853Z,10.63
2018-06-23T00:20:59.185Z,6.37
2018-06-23T00:24:01.391Z,8.63
2018-06-23T00:27:03.874Z,8.17
2018-06-23T00:30:06.056Z,6.10
2018-06-23T00:33:08.287Z,13.40
2018-06-23T00:36:10.521Z,11.77
2018-06-23T00:39:12.728Z,16.17
2018-06-23T00:42:14.939Z,9.13
2018-06-23T00:45:17.180Z,7.80
2018-06-23T00:48:19.315Z,13.27
2018-06-23T00:51:21.592Z,11.77
2018-06-23T00:54:23.872Z,15.27
2018-06-23T00:57:26.102Z,12.23
2018-06-23T01:00:28.358Z,13.37
2018-06-23T01:03:30.509Z,14.70
2018-06-23T01:06:32.824Z,8.60
2018-06-23T01:09:35.137Z,13.50
2018-06-23T01:12:37.360Z,15.83
2018-06-23T01:15:39.520Z,15.67
2018-06-23T01:18:43.078Z,14.97
2018-06-23T01:21:45.272Z,14.00
2018-06-23T01:24:47.469Z,17.00
2018-06-23T01:27:49.620Z,14.67
2018-06-23T01:30:51.784Z,16.63
2018-06-23T01:33:54.025Z,12.53
2018-06-23T01:36:56.359Z,13.83
2018-06-23T01:39:58.607Z,15.37
2018-06-23T01:43:02.832Z,13.07
2018-06-23T01:46:05.014Z,22.27
2018-06-23T01:49:07.291Z,15.30
2018-06-23T01:52:09.545Z,22.00
2018-06-23T01:55:11.673Z,20.47
2018-06-23T01:58:13.824Z,21.77
2018-06-23T02:01:16.066Z,22.77
2018-06-23T02:04:18.353Z,23.20
2018-06-23T02:07:20.561Z,20.27
2018-06-23T02:10:22.710Z,13.03
2018-06-23T02:13:24.939Z,17.17
2018-06-23T02:16:32.949Z,20.93
2018-06-23T02:19:40.807Z,18.33
2018-06-23T02:22:48.793Z,16.83
2018-06-23T02:25:56.638Z,18.47
2018-06-23T02:29:04.585Z,21.87
2018-06-23T02:32:12.515Z,20.43
2018-06-23T02:35:14.705Z,18.03
2018-06-23T02:38:16.912Z,19.37
2018-06-23T02:41:19.246Z,16.57
2018-06-23T02:44:21.510Z,18.63
2018-06-23T02:47:23.697Z,19.53
2018-06-23T02:50:25.992Z,21.27
2018-06-23T02:53:28.285Z,19.43
2018-06-23T02:56:30.547Z,22.77
2018-06-23T02:59:32.741Z,14.07
2018-06-23T03:02:34.980Z,22.97
2018-06-23T03:05:37.281Z,18.00
2018-06-23T03:08:39.532Z,21.33
2018-06-23T03:11:41.846Z,22.10
2018-06-23T03:14:44.135Z,26.70
2018-06-23T03:17:46.308Z,22.73
2018-06-23T03:20:48.525Z,18.93
2018-06-23T03:23:50.789Z,22.67
2018-06-23T03:26:52.975Z,23.07
2018-06-23T03:29:55.253Z,23.60
2018-06-23T03:32:57.453Z,15.47
2018-06-23T03:35:59.652Z,16.50
2018-06-23T03:39:04.627Z,19.47
2018-06-23T03:42:06.928Z,19.80
2018-06-23T03:45:09.238Z,18.63
2018-06-23T03:48:11.489Z,18.17
2018-06-23T03:51:13.754Z,18.23
2018-06-23T03:54:15.927Z,28.20
2018-06-23T03:57:18.157Z,21.77
2018-06-23T04:00:20.413Z,23.37
2018-06-23T04:03:22.954Z,16.93
2018-06-23T04:06:26.185Z,26.83
2018-06-23T04:09:28.319Z,19.60
2018-06-23T04:12:30.622Z,25.40
2018-06-23T04:15:32.864Z,19.00
2018-06-23T04:18:35.101Z,24.83
2018-06-23T04:21:37.355Z,25.43
2018-06-23T04:24:42.246Z,28.83
2018-06-23T04:27:44.434Z,25.57
2018-06-23T04:30:46.793Z,24.07
2018-06-23T04:33:49.046Z,22.40
2018-06-23T04:36:51.366Z,26.07
2018-06-23T04:39:53.618Z,24.53
2018-06-23T04:42:55.950Z,20.70
2018-06-23T04:45:58.862Z,20.63
2018-06-23T04:49:01.017Z,23.80
2018-06-23T04:52:03.217Z,24.80
2018-06-23T04:55:05.516Z,27.27
2018-06-23T04:58:07.821Z,23.63
2018-06-23T05:01:09.988Z,20.93
2018-06-23T05:04:12.157Z,21.93
2018-06-23T05:07:14.498Z,18.53
2018-06-23T05:10:17.528Z,23.43
2018-06-23T05:13:19.721Z,23.47
2018-06-23T05:16:21.890Z,26.80
2018-06-23T05:19:24.179Z,25.07
2018-06-23T05:22:26.450Z,36.67
2018-06-23T05:25:28.603Z,24.53
2018-06-23T05:28:30.815Z,28.60
2018-06-23T05:31:33.001Z,28.47
2018-06-23T05:34:35.184Z,25.50
2018-06-23T05:37:37.417Z,27.03
2018-06-23T05:40:39.558Z,22.10
2018-06-23T05:43:41.783Z,32.37
2018-06-23T05:46:45.001Z,27.10
2018-06-23T05:49:47.271Z,27.63
2018-06-23T05:52:49.477Z,28.33
2018-06-23T05:55:51.741Z,24.37
2018-06-23T05:58:54.061Z,23.27
2018-06-23T06:01:56.263Z,29.03
2018-06-23T06:04:58.526Z,29.93
2018-06-23T06:08:00.776Z,24.97
2018-06-23T06:11:03.033Z,24.40
2018-06-23T06:14:05.244Z,23.63
2018-06-23T06:17:32.540Z,23.67
2018-06-23T06:20:35.150Z,18.83
2018-06-23T06:23:37.425Z,16.53
2018-06-23T06:26:39.742Z,16.67
2018-06-23T06:29:41.960Z,15.93
2018-06-23T06:32:44.251Z,20.30
2018-06-23T06:35:46.476Z,22.20
2018-06-23T06:38:50.211Z,19.67
2018-06-23T06:41:52.530Z,17.77
2018-06-23T06:44:54.684Z,15.00
2018-06-23T06:47:56.843Z,15.63
2018-06-23T06:50:59.165Z,12.00
2018-06-23T06:54:01.430Z,10.60
2018-06-23T06:57:03.775Z,13.67
2018-06-23T07:00:06.182Z,16.83
2018-06-23T07:03:08.361Z,15.73
2018-06-23T07:06:10.663Z,15.37
2018-06-23T07:09:13.671Z,15.27
2018-06-23T07:12:15.909Z,16.33
2018-06-23T07:15:18.213Z,17.27
2018-06-23T07:18:20.417Z,9.53
2018-06-23T07:21:22.585Z,16.50
2018-06-23T07:24:24.897Z,14.27
2018-06-23T07:27:27.170Z,9.53
2018-06-23T07:30:30.038Z,16.47
2018-06-23T07:33:32.386Z,11.70
2018-06-23T07:36:34.584Z,17.20
2018-06-23T07:39:36.865Z,16.90
2018-06-23T07:42:39.188Z,12.67
2018-06-23T07:45:41.369Z,10.70
2018-06-23T07:48:43.919Z,12.67
2018-06-23T07:51:46.167Z,11.63
2018-06-23T07:54:48.419Z,12.00
2018-06-23T07:57:50.749Z,15.53
2018-06-23T08:00:52.968Z,13.60
2018-06-23T08:03:55.559Z,14.67
2018-06-23T08:06:57.834Z,13.80
2018-06-23T08:10:00.100Z,12.60
2018-06-23T08:13:02.404Z,11.60
2018-06-23T08:16:05.203Z,9.20
2018-06-23T08:19:08.459Z,15.83
2018-06-23T08:22:10.712Z,8.80
2018-06-23T08:25:12.962Z,11.60
2018-06-23T08:28:15.118Z,7.50
2018-06-23T08:31:17.415Z,8.53
2018-06-23T08:34:19.749Z,8.20
2018-06-23T08:37:22.326Z,12.00
2018-06-23T08:40:24.619Z,9.30
2018-06-23T08:43:26.996Z,8.03
2018-06-23T08:46:30.161Z,8.83
2018-06-23T08:49:32.506Z,6.57
2018-06-23T08:52:34.783Z,7.17
2018-06-23T08:55:37.112Z,10.57
2018-06-23T08:58:39.527Z,6.63
2018-06-23T09:01:41.823Z,6.87
2018-06-23T09:04:44.139Z,10.63
2018-06-23T09:09:40.004Z,8.60
2018-06-23T09:12:43.265Z,4.33
2018-06-23T09:15:46.511Z,9.27
2018-06-23T09:18:50.447Z,4.97
2018-06-23T09:21:53.715Z,6.13
2018-06-23T09:24:56.949Z,7.07
2018-06-23T09:28:00.049Z,9.93
2018-06-23T09:31:03.580Z,7.03
2018-06-23T09:34:06.722Z,3.47
2018-06-23T09:37:09.963Z,5.47
2018-06-23T09:40:13.211Z,6.40
2018-06-23T09:43:16.387Z,5.60
2018-06-23T09:46:19.782Z,9.03
2018-06-23T09:49:22.948Z,2.90
2018-06-23T09:52:25.904Z,5.43
2018-06-23T09:55:29.111Z,3.90
2018-06-23T09:58:32.214Z,5.77
2018-06-23T10:01:35.713Z,3.90
2018-06-23T10:04:39.991Z,7.70
2018-06-23T10:07:43.299Z,8.50
2018-06-23T10:10:46.577Z,9.30
2018-06-23T10:13:49.633Z,5.57
2018-06-23T10:16:53.038Z,7.43
2018-06-23T10:19:56.389Z,6.57
2018-06-23T10:22:59.563Z,10.20
2018-06-23T10:26:02.856Z,4.37
2018-06-23T10:29:06.020Z,6.20
2018-06-23T10:32:09.057Z,4.43
2018-06-23T10:35:12.235Z,4.57
2018-06-23T10:38:15.509Z,5.03
2018-06-23T10:41:18.550Z,6.00
2018-06-23T10:44:21.793Z,4.03
2018-06-23T10:47:25.140Z,6.47
2018-06-23T10:50:28.373Z,9.17
2018-06-23T10:53:31.565Z,5.63
2018-06-23T10:56:35.154Z,5.13
2018-06-23T10:59:38.313Z,5.70
2018-06-23T11:02:41.539Z,10.17
2018-06-23T11:05:44.838Z,5.50
2018-06-23T11:08:49.511Z,4.10
2018-06-23T11:11:53.690Z,8.97
2018-06-23T11:14:56.915Z,7.80
2018-06-23T11:18:00.351Z,9.07
2018-06-23T11:21:03.572Z,6.07
2018-06-23T11:24:06.876Z,7.50
2018-06-23T11:27:10.062Z,6.80
2018-06-23T11:30:13.279Z,4.40
2018-06-23T11:33:16.505Z,5.03
2018-06-23T11:36:19.853Z,6.37
2018-06-23T11:39:23.201Z,5.20
2018-06-23T11:42:26.591Z,5.07
2018-06-23T11:45:29.844Z,5.20
2018-06-23T11:48:33.132Z,6.13
2018-06-23T11:51:36.389Z,6.07
2018-06-23T11:54:39.501Z,7.37
2018-06-23T11:57:42.825Z,7.10
2018-06-23T12:00:46.252Z,5.13
2018-06-23T12:03:49.390Z,8.80
2018-06-23T12:06:52.583Z,7.33
2018-06-23T12:09:55.751Z,6.70
2018-06-23T12:12:59.673Z,4.47
2018-06-23T12:16:02.921Z,4.20
2018-06-23T12:19:06.243Z,6.70
2018-06-23T12:22:09.585Z,6.93
2018-06-23T12:25:12.862Z,4.43
2018-06-23T12:28:16.033Z,7.63
2018-06-23T12:31:19.224Z,7.17
2018-06-23T12:34:22.348Z,8.13
2018-06-23T12:37:25.482Z,9.17
2018-06-23T12:40:28.865Z,7.03
2018-06-23T12:43:32.131Z,7.27
2018-06-23T12:46:54.746Z,7.50
2018-06-23T12:49:58.272Z,8.40
2018-06-23T12:53:03.536Z,8.17
2018-06-23T12:56:06.758Z,8.00
2018-06-23T12:59:09.864Z,7.47
2018-06-23T13:02:13.144Z,12.23
2018-06-23T13:05:16.213Z,12.37
2018-06-23T13:08:19.454Z,8.07
2018-06-23T13:11:22.788Z,8.10
2018-06-23T13:14:25.915Z,7.10
2018-06-23T13:17:29.252Z,9.97
2018-06-23T13:20:33.671Z,8.63
2018-06-23T13:23:37.001Z,9.63
2018-06-23T13:26:40.146Z,9.60
2018-06-23T13:29:43.366Z,11.50
2018-06-23T13:32:47.574Z,10.33
2018-06-23T13:35:50.677Z,6.77
2018-06-23T13:38:54.883Z,9.47
2018-06-23T13:41:58.296Z,8.90
2018-06-23T13:45:02.125Z,6.87
2018-06-23T13:48:05.374Z,10.50
2018-06-23T13:51:08.649Z,10.30
2018-06-23T13:54:11.918Z,9.43
2018-06-23T13:57:15.392Z,8.60
2018-06-23T14:00:18.935Z,7.20
2018-06-23T14:03:22.396Z,6.80
2018-06-23T14:06:26.607Z,8.90
2018-06-23T14:09:29.887Z,10.33
2018-06-23T14:12:33.094Z,7.33
2018-06-23T14:15:37.493Z,7.53
2018-06-23T14:18:40.910Z,6.70
2018-06-23T14:21:44.058Z,12.13
2018-06-23T14:24:47.419Z,8.73
2018-06-23T14:27:51.029Z,6.30
2018-06-23T14:30:54.303Z,12.07
2018-06-23T14:33:57.636Z,11.83
2018-06-23T14:37:01.190Z,9.63
2018-06-23T14:40:04.858Z,6.40
2018-06-23T14:43:08.087Z,6.77
2018-06-23T14:46:11.414Z,9.87
2018-06-23T14:49:14.370Z,10.20
2018-06-23T14:52:17.404Z,8.90
2018-06-23T14:55:20.640Z,11.60
2018-06-23T14:58:23.936Z,5.10
2018-06-23T15:01:27.359Z,6.07
2018-06-23T15:04:30.610Z,7.00
2018-06-23T15:07:33.987Z,8.57
2018-06-23T15:10:55.327Z,5.20
2018-06-23T15:13:58.703Z,6.10
2018-06-23T15:17:03.219Z,5.97
2018-06-23T15:20:06.599Z,5.43
2018-06-23T15:23:10.045Z,5.20
2018-06-23T15:26:13.064Z,4.33
2018-06-23T15:29:16.107Z,4.73
2018-06-23T15:32:24.661Z,6.50
2018-06-23T15:35:27.760Z,5.40
2018-06-23T15:38:33.018Z,5.13
2018-06-23T15:41:37.260Z,4.83
2018-06-23T15:44:40.372Z,3.60
2018-06-23T15:47:43.853Z,4.27
2018-06-23T15:50:47.265Z,3.67
2018-06-23T15:53:50.546Z,6.83
2018-06-23T15:56:53.851Z,5.87
2018-06-23T15:59:57.004Z,5.90
2018-06-23T16:03:00.157Z,5.20
2018-06-23T16:06:04.568Z,5.50
2018-06-23T16:09:09.094Z,2.40
2018-06-23T16:12:12.242Z,3.13
2018-06-23T16:15:15.768Z,4.70
2018-06-23T16:18:18.830Z,2.37
2018-06-23T16:21:22.012Z,3.67
2018-06-23T16:24:25.666Z,5.77
2018-06-23T16:27:28.658Z,3.27
2018-06-23T16:30:31.900Z,3.03
2018-06-23T16:33:34.994Z,2.87
2018-06-23T16:36:38.104Z,5.10
2018-06-23T16:39:41.478Z,4.03
2018-06-23T16:42:44.691Z,4.80
2018-06-23T16:45:48.837Z,3.77
2018-06-23T16:48:52.248Z,3.60
2018-06-23T16:51:55.343Z,3.23
2018-06-23T16:54:58.349Z,3.93
2018-06-23T16:58:01.600Z,4.93
2018-06-23T17:01:04.761Z,2.20
2018-06-23T17:04:07.987Z,4.73
2018-06-23T17:07:11.015Z,2.07
2018-06-23T17:10:14.320Z,5.43
2018-06-23T17:13:17.561Z,4.13
2018-06-23T17:16:29.855Z,5.40
2018-06-23T17:19:33.056Z,7.63
2018-06-23T17:22:36.147Z,5.00
2018-06-23T17:25:39.116Z,2.93
2018-06-23T17:28:42.852Z,5.27
2018-06-23T17:31:46.056Z,2.53
2018-06-23T17:34:49.160Z,4.40
2018-06-23T17:37:52.334Z,7.10
2018-06-23T17:40:55.487Z,3.93
2018-06-23T17:43:58.745Z,4.23
2018-06-23T17:47:01.894Z,6.50
2018-06-23T17:50:05.156Z,18.60
2018-06-23T17:53:08.361Z,20.00
2018-06-23T17:56:11.467Z,13.53
2018-06-23T17:59:14.738Z,9.63
2018-06-23T18:02:18.243Z,10.30
2018-06-23T18:05:21.292Z,19.40
2018-06-23T18:08:24.465Z,15.87
2018-06-23T18:11:27.665Z,10.20
2018-06-23T18:14:30.870Z,11.90
2018-06-23T18:17:34.167Z,7.13
2018-06-23T18:20:38.364Z,7.17
2018-06-23T18:23:41.522Z,9.53
2018-06-23T18:26:44.645Z,7.47
2018-06-23T18:29:47.828Z,8.33
2018-06-23T18:32:50.934Z,6.70
2018-06-23T18:35:54.093Z,6.20
2018-06-23T18:38:57.346Z,9.70
2018-06-23T18:42:00.504Z,5.53
2018-06-23T18:45:03.672Z,6.27
2018-06-23T18:48:06.743Z,2.87
2018-06-23T18:51:09.839Z,5.37
2018-06-23T18:54:13.022Z,3.80
2018-06-23T18:57:16.101Z,5.43
2018-06-23T19:00:20.274Z,5.20
2018-06-23T19:03:23.441Z,3.20
2018-06-23T19:06:26.520Z,4.70
2018-06-23T19:09:29.537Z,6.30
2018-06-23T19:12:32.905Z,5.83
2018-06-23T19:15:36.065Z,4.73
2018-06-23T19:18:39.176Z,2.83
2018-06-23T19:21:42.330Z,5.33
2018-06-23T19:24:45.387Z,6.33
2018-06-23T19:27:48.566Z,4.23
2018-06-23T19:30:51.685Z,10.30
2018-06-23T19:33:54.733Z,6.33
2018-06-23T19:36:57.825Z,8.80
2018-06-23T19:40:00.854Z,5.40
2018-06-23T19:43:04.106Z,5.37
2018-06-23T19:46:07.190Z,6.40
2018-06-23T19:49:10.193Z,5.97
2018-06-23T19:52:13.343Z,7.63
2018-06-23T19:55:16.629Z,7.70
2018-06-23T19:58:19.886Z,6.60
2018-06-23T20:01:23.096Z,6.33
2018-06-23T20:04:27.262Z,6.23
2018-06-23T20:07:30.481Z,8.30
2018-06-23T20:10:33.532Z,11.03
2018-06-23T20:13:36.672Z,6.30
2018-06-23T20:16:39.912Z,8.37
2018-06-23T20:19:42.863Z,8.40
2018-06-23T20:22:45.921Z,6.07
2018-06-23T20:25:48.999Z,9.57
2018-06-23T20:28:52.653Z,6.43
2018-06-23T20:31:56.761Z,7.17
2018-06-23T20:35:00.049Z,8.33
2018-06-23T20:38:03.205Z,4.90
2018-06-23T20:41:06.294Z,9.10
2018-06-23T20:44:09.332Z,8.17
2018-06-23T20:47:12.528Z,8.03
2018-06-23T20:50:15.739Z,7.60
2018-06-23T20:53:18.817Z,9.43
2018-06-23T20:56:21.874Z,9.20
2018-06-23T20:59:24.922Z,9.43
2018-06-23T21:02:28.163Z,6.60
2018-06-23T21:05:31.179Z,7.13
2018-06-23T21:08:34.856Z,6.40
2018-06-23T21:11:38.018Z,7.30
2018-06-23T21:14:41.228Z,7.33
2018-06-23T21:17:44.356Z,7.80
2018-06-23T21:20:47.447Z,5.97
2018-06-23T21:23:50.588Z,8.90
2018-06-23T21:26:53.732Z,7.63
2018-06-23T21:29:56.878Z,11.10
2018-06-23T21:33:00.066Z,5.50
2018-06-23T21:36:03.206Z,10.57
2018-06-23T21:39:07.233Z,9.87
2018-06-23T21:42:10.237Z,6.23
2018-06-23T21:45:13.341Z,6.77
2018-06-23T21:48:16.474Z,8.27
2018-06-23T21:51:19.542Z,7.43
2018-06-23T21:54:22.639Z,8.33
2018-06-23T21:57:26.601Z,7.33
2018-06-23T22:00:35.246Z,6.23
2018-06-23T22:03:39.386Z,6.70
2018-06-23T22:06:42.460Z,8.40
2018-06-23T22:09:45.524Z,5.63
2018-06-23T22:12:48.678Z,8.37
2018-06-23T22:15:51.712Z,9.10
2018-06-23T22:18:54.703Z,7.73
2018-06-23T22:21:57.753Z,7.87
2018-06-23T22:25:00.798Z,5.03
2018-06-23T22:28:03.970Z,5.97
2018-06-23T22:31:07.135Z,6.53
2018-06-23T22:34:10.281Z,5.23
2018-06-23T22:37:13.425Z,5.80
2018-06-23T22:40:16.490Z,8.00
2018-06-23T22:43:19.487Z,8.87
2018-06-23T22:46:22.701Z,5.10
2018-06-23T22:49:26.803Z,5.67
2018-06-23T22:52:29.943Z,7.67
2018-06-23T22:55:33.286Z,6.47
2018-06-23T22:58:36.430Z,6.93
2018-06-23T23:01:39.565Z,5.10
2018-06-23T23:04:42.729Z,5.40
2018-06-23T23:07:46.724Z,6.40
2018-06-23T23:10:51.558Z,7.60
2018-06-23T23:13:55.573Z,7.80
2018-06-23T23:17:00.041Z,5.87
2018-06-23T23:20:03.238Z,5.47
2018-06-23T23:23:06.344Z,9.07
2018-06-23T23:26:09.433Z,6.20
2018-06-23T23:29:13.550Z,6.87
2018-06-23T23:32:16.859Z,10.20
2018-06-23T23:35:20.206Z,7.23
2018-06-23T23:38:23.296Z,6.20
2018-06-23T23:41:26.333Z,5.73
2018-06-23T23:44:29.405Z,8.47
2018-06-23T23:47:32.561Z,8.23
2018-06-23T23:50:35.686Z,6.60
2018-06-23T23:53:38.801Z,8.50
2018-06-23T23:56:41.785Z,6.10
2018-06-23T23:59:44.803Z,8.17
